sensor_id;sensor_type;location;lat;lon;timestamp;temperature;humidity
38788;DHT22;24536;45.488;12.238;2024-02-23T00:01:41;12.50;99.90
38788;DHT22;24536;45.488;12.238;2024-02-23T00:04:07;12.40;99.90
38788;DHT22;24536;45.488;12.238;2024-02-23T00:06:34;12.40;99.90
38788;DHT22;24536;45.488;12.238;2024-02-23T00:09:00;12.40;99.90
38788;DHT22;24536;45.488;12.238;2024-02-23T00:11:26;12.40;99.90
38788;DHT22;24536;45.488;12.238;2024-02-23T00:13:54;12.30;99.90
38788;DHT22;24536;45.488;12.238;2024-02-23T00:16:20;12.40;99.90
38788;DHT22;24536;45.488;12.238;2024-02-23T00:18:45;12.40;99.90
38788;DHT22;24536;45.488;12.238;2024-02-23T00:21:11;12.40;99.90
38788;DHT22;24536;45.488;12.238;2024-02-23T00:23:37;12.30;99.90
38788;DHT22;24536;45.488;12.238;2024-02-23T00:26:03;12.30;99.90
38788;DHT22;24536;45.488;12.238;2024-02-23T00:28:28;12.30;99.90
38788;DHT22;24536;45.488;12.238;2024-02-23T00:30:54;12.30;99.90
38788;DHT22;24536;45.488;12.238;2024-02-23T00:33:20;12.30;99.90
38788;DHT22;24536;45.488;12.238;2024-02-23T00:35:51;12.30;99.90
38788;DHT22;24536;45.488;12.238;2024-02-23T00:38:20;12.30;99.90
38788;DHT22;24536;45.488;12.238;2024-02-23T00:40:46;12.30;99.90
38788;DHT22;24536;45.488;12.238;2024-02-23T00:43:12;12.30;99.90
38788;DHT22;24536;45.488;12.238;2024-02-23T00:45:38;12.30;99.90
38788;DHT22;24536;45.488;12.238;2024-02-23T00:48:03;12.30;99.90
38788;DHT22;24536;45.488;12.238;2024-02-23T00:50:29;12.30;99.90
38788;DHT22;24536;45.488;12.238;2024-02-23T00:52:55;12.30;99.90
38788;DHT22;24536;45.488;12.238;2024-02-23T00:55:20;12.30;99.90
38788;DHT22;24536;45.488;12.238;2024-02-23T00:57:46;12.40;99.90
38788;DHT22;24536;45.488;12.238;2024-02-23T01:00:12;12.40;99.90
38788;DHT22;24536;45.488;12.238;2024-02-23T01:02:38;12.40;99.90
38788;DHT22;24536;45.488;12.238;2024-02-23T01:05:04;12.40;99.90
38788;DHT22;24536;45.488;12.238;2024-02-23T01:07:33;12.30;99.90
38788;DHT22;24536;45.488;12.238;2024-02-23T01:09:59;12.40;99.90
38788;DHT22;24536;45.488;12.238;2024-02-23T01:12:25;12.40;99.90
38788;DHT22;24536;45.488;12.238;2024-02-23T01:14:50;12.40;99.90
38788;DHT22;24536;45.488;12.238;2024-02-23T01:17:16;12.40;99.90
38788;DHT22;24536;45.488;12.238;2024-02-23T01:19:43;12.40;99.90
38788;DHT22;24536;45.488;12.238;2024-02-23T01:22:09;12.40;99.90
38788;DHT22;24536;45.488;12.238;2024-02-23T01:24:34;12.40;99.90
38788;DHT22;24536;45.488;12.238;2024-02-23T01:27:00;12.40;99.90
38788;DHT22;24536;45.488;12.238;2024-02-23T01:29:26;12.40;99.90
38788;DHT22;24536;45.488;12.238;2024-02-23T01:31:52;12.40;99.90
38788;DHT22;24536;45.488;12.238;2024-02-23T01:34:20;12.40;99.90
38788;DHT22;24536;45.488;12.238;2024-02-23T01:36:46;12.40;99.90
38788;DHT22;24536;45.488;12.238;2024-02-23T01:39:12;12.40;99.90
38788;DHT22;24536;45.488;12.238;2024-02-23T01:41:38;12.40;99.90
38788;DHT22;24536;45.488;12.238;2024-02-23T01:44:04;12.40;99.90
38788;DHT22;24536;45.488;12.238;2024-02-23T01:46:30;12.40;99.90
38788;DHT22;24536;45.488;12.238;2024-02-23T01:48:56;12.40;99.90
38788;DHT22;24536;45.488;12.238;2024-02-23T01:51:23;12.40;99.90
38788;DHT22;24536;45.488;12.238;2024-02-23T01:53:48;12.40;99.90
38788;DHT22;24536;45.488;12.238;2024-02-23T01:56:15;12.40;99.90
38788;DHT22;24536;45.488;12.238;2024-02-23T01:58:43;12.40;99.90
38788;DHT22;24536;45.488;12.238;2024-02-23T02:01:10;12.40;99.90
38788;DHT22;24536;45.488;12.238;2024-02-23T02:03:37;12.40;99.90
38788;DHT22;24536;45.488;12.238;2024-02-23T02:06:06;12.40;99.90
38788;DHT22;24536;45.488;12.238;2024-02-23T02:08:36;12.40;99.90
38788;DHT22;24536;45.488;12.238;2024-02-23T02:11:02;12.40;99.90
38788;DHT22;24536;45.488;12.238;2024-02-23T02:13:29;12.40;99.90
38788;DHT22;24536;45.488;12.238;2024-02-23T02:15:55;12.40;99.90
38788;DHT22;24536;45.488;12.238;2024-02-23T02:18:21;12.40;99.90
38788;DHT22;24536;45.488;12.238;2024-02-23T02:20:56;12.40;99.90
38788;DHT22;24536;45.488;12.238;2024-02-23T02:23:23;12.40;99.90
38788;DHT22;24536;45.488;12.238;2024-02-23T02:25:53;12.30;99.90
38788;DHT22;24536;45.488;12.238;2024-02-23T02:28:19;12.30;99.90
38788;DHT22;24536;45.488;12.238;2024-02-23T02:30:44;12.30;99.90
38788;DHT22;24536;45.488;12.238;2024-02-23T02:33:11;12.30;99.90
38788;DHT22;24536;45.488;12.238;2024-02-23T02:35:37;12.40;99.90
38788;DHT22;24536;45.488;12.238;2024-02-23T02:38:03;12.40;99.90
38788;DHT22;24536;45.488;12.238;2024-02-23T02:40:28;12.30;99.90
38788;DHT22;24536;45.488;12.238;2024-02-23T02:42:54;12.30;99.90
38788;DHT22;24536;45.488;12.238;2024-02-23T02:45:19;12.30;99.90
38788;DHT22;24536;45.488;12.238;2024-02-23T02:47:45;12.30;99.90
38788;DHT22;24536;45.488;12.238;2024-02-23T02:50:11;12.30;99.90
38788;DHT22;24536;45.488;12.238;2024-02-23T02:52:37;12.30;99.90
38788;DHT22;24536;45.488;12.238;2024-02-23T02:55:03;12.30;99.90
38788;DHT22;24536;45.488;12.238;2024-02-23T02:57:29;12.30;99.90
38788;DHT22;24536;45.488;12.238;2024-02-23T02:59:55;12.30;99.90
38788;DHT22;24536;45.488;12.238;2024-02-23T03:02:21;12.30;99.90
38788;DHT22;24536;45.488;12.238;2024-02-23T03:04:47;12.30;99.90
38788;DHT22;24536;45.488;12.238;2024-02-23T03:07:13;12.30;99.90
38788;DHT22;24536;45.488;12.238;2024-02-23T03:09:39;12.30;99.90
38788;DHT22;24536;45.488;12.238;2024-02-23T03:12:06;12.40;99.90
38788;DHT22;24536;45.488;12.238;2024-02-23T03:14:31;12.30;99.90
38788;DHT22;24536;45.488;12.238;2024-02-23T03:16:59;12.30;99.90
38788;DHT22;24536;45.488;12.238;2024-02-23T03:19:25;12.40;99.90
38788;DHT22;24536;45.488;12.238;2024-02-23T03:21:51;12.40;99.90
38788;DHT22;24536;45.488;12.238;2024-02-23T03:24:17;12.40;99.90
38788;DHT22;24536;45.488;12.238;2024-02-23T03:26:43;12.40;99.90
38788;DHT22;24536;45.488;12.238;2024-02-23T03:29:10;12.40;99.90
38788;DHT22;24536;45.488;12.238;2024-02-23T03:31:35;12.50;99.90
38788;DHT22;24536;45.488;12.238;2024-02-23T03:34:02;12.50;99.90
38788;DHT22;24536;45.488;12.238;2024-02-23T03:36:28;12.60;99.90
38788;DHT22;24536;45.488;12.238;2024-02-23T03:38:54;12.60;99.90
38788;DHT22;24536;45.488;12.238;2024-02-23T03:41:19;12.60;99.90
38788;DHT22;24536;45.488;12.238;2024-02-23T03:43:45;12.70;99.90
38788;DHT22;24536;45.488;12.238;2024-02-23T03:46:11;12.70;99.90
38788;DHT22;24536;45.488;12.238;2024-02-23T03:48:37;12.80;99.90
38788;DHT22;24536;45.488;12.238;2024-02-23T03:51:04;12.80;99.90
38788;DHT22;24536;45.488;12.238;2024-02-23T03:53:30;12.90;99.90
38788;DHT22;24536;45.488;12.238;2024-02-23T03:55:57;12.90;99.90
38788;DHT22;24536;45.488;12.238;2024-02-23T03:58:23;12.90;99.90
38788;DHT22;24536;45.488;12.238;2024-02-23T04:00:48;13.00;99.90
38788;DHT22;24536;45.488;12.238;2024-02-23T04:03:14;13.00;99.50
38788;DHT22;24536;45.488;12.238;2024-02-23T04:05:40;13.00;99.40
38788;DHT22;24536;45.488;12.238;2024-02-23T04:08:05;13.10;99.30
38788;DHT22;24536;45.488;12.238;2024-02-23T04:10:31;13.10;99.20
38788;DHT22;24536;45.488;12.238;2024-02-23T04:12:58;13.20;99.00
38788;DHT22;24536;45.488;12.238;2024-02-23T04:15:24;13.10;98.80
38788;DHT22;24536;45.488;12.238;2024-02-23T04:17:49;13.20;98.50
38788;DHT22;24536;45.488;12.238;2024-02-23T04:20:15;13.20;98.40
38788;DHT22;24536;45.488;12.238;2024-02-23T04:22:41;13.30;98.40
38788;DHT22;24536;45.488;12.238;2024-02-23T04:25:06;13.30;98.20
38788;DHT22;24536;45.488;12.238;2024-02-23T04:27:32;13.30;98.40
38788;DHT22;24536;45.488;12.238;2024-02-23T04:29:58;13.30;98.00
38788;DHT22;24536;45.488;12.238;2024-02-23T04:32:24;13.30;98.00
38788;DHT22;24536;45.488;12.238;2024-02-23T04:34:49;13.30;97.90
38788;DHT22;24536;45.488;12.238;2024-02-23T04:37:15;13.30;97.80
38788;DHT22;24536;45.488;12.238;2024-02-23T04:39:43;13.30;97.80
38788;DHT22;24536;45.488;12.238;2024-02-23T04:42:09;13.30;97.70
38788;DHT22;24536;45.488;12.238;2024-02-23T04:44:36;13.30;97.60
38788;DHT22;24536;45.488;12.238;2024-02-23T04:47:02;13.30;97.40
38788;DHT22;24536;45.488;12.238;2024-02-23T04:49:28;13.30;97.30
38788;DHT22;24536;45.488;12.238;2024-02-23T04:51:54;13.30;97.00
38788;DHT22;24536;45.488;12.238;2024-02-23T04:54:20;13.40;97.00
38788;DHT22;24536;45.488;12.238;2024-02-23T04:56:46;13.40;96.90
38788;DHT22;24536;45.488;12.238;2024-02-23T04:59:13;13.40;96.60
38788;DHT22;24536;45.488;12.238;2024-02-23T05:01:39;13.40;96.60
38788;DHT22;24536;45.488;12.238;2024-02-23T05:04:05;13.50;96.40
38788;DHT22;24536;45.488;12.238;2024-02-23T05:06:31;13.40;96.30
38788;DHT22;24536;45.488;12.238;2024-02-23T05:08:56;13.50;96.10
38788;DHT22;24536;45.488;12.238;2024-02-23T05:11:23;13.40;96.10
38788;DHT22;24536;45.488;12.238;2024-02-23T05:13:48;13.50;96.00
38788;DHT22;24536;45.488;12.238;2024-02-23T05:16:14;13.40;95.90
38788;DHT22;24536;45.488;12.238;2024-02-23T05:18:40;13.50;95.80
38788;DHT22;24536;45.488;12.238;2024-02-23T05:21:07;13.50;95.70
38788;DHT22;24536;45.488;12.238;2024-02-23T05:23:32;13.50;95.70
38788;DHT22;24536;45.488;12.238;2024-02-23T05:25:58;13.60;95.80
38788;DHT22;24536;45.488;12.238;2024-02-23T05:28:24;13.50;95.40
38788;DHT22;24536;45.488;12.238;2024-02-23T05:30:50;13.50;95.40
38788;DHT22;24536;45.488;12.238;2024-02-23T05:33:16;13.60;95.30
38788;DHT22;24536;45.488;12.238;2024-02-23T05:35:44;13.60;95.20
38788;DHT22;24536;45.488;12.238;2024-02-23T05:38:10;13.60;95.00
38788;DHT22;24536;45.488;12.238;2024-02-23T05:40:36;13.60;95.00
38788;DHT22;24536;45.488;12.238;2024-02-23T05:43:01;13.60;94.70
38788;DHT22;24536;45.488;12.238;2024-02-23T05:45:27;13.60;94.70
38788;DHT22;24536;45.488;12.238;2024-02-23T05:47:53;13.70;94.60
38788;DHT22;24536;45.488;12.238;2024-02-23T05:50:18;13.70;94.40
38788;DHT22;24536;45.488;12.238;2024-02-23T05:52:44;13.70;94.30
38788;DHT22;24536;45.488;12.238;2024-02-23T05:55:10;13.70;94.20
38788;DHT22;24536;45.488;12.238;2024-02-23T05:57:36;13.70;94.20
38788;DHT22;24536;45.488;12.238;2024-02-23T06:00:02;13.70;94.10
38788;DHT22;24536;45.488;12.238;2024-02-23T06:02:28;13.70;94.00
38788;DHT22;24536;45.488;12.238;2024-02-23T06:04:53;13.70;94.00
38788;DHT22;24536;45.488;12.238;2024-02-23T06:07:19;13.70;93.80
38788;DHT22;24536;45.488;12.238;2024-02-23T06:09:56;13.70;93.90
38788;DHT22;24536;45.488;12.238;2024-02-23T06:12:22;13.70;94.00
38788;DHT22;24536;45.488;12.238;2024-02-23T06:14:48;13.70;93.90
38788;DHT22;24536;45.488;12.238;2024-02-23T06:17:14;13.60;93.90
38788;DHT22;24536;45.488;12.238;2024-02-23T06:19:39;13.70;93.90
38788;DHT22;24536;45.488;12.238;2024-02-23T06:22:05;13.70;94.10
38788;DHT22;24536;45.488;12.238;2024-02-23T06:24:32;13.70;94.30
38788;DHT22;24536;45.488;12.238;2024-02-23T06:26:57;13.70;94.50
38788;DHT22;24536;45.488;12.238;2024-02-23T06:29:27;13.70;94.80
38788;DHT22;24536;45.488;12.238;2024-02-23T06:31:53;13.70;95.50
38788;DHT22;24536;45.488;12.238;2024-02-23T06:34:19;13.70;95.70
38788;DHT22;24536;45.488;12.238;2024-02-23T06:36:45;13.70;95.80
38788;DHT22;24536;45.488;12.238;2024-02-23T06:39:10;13.70;96.00
38788;DHT22;24536;45.488;12.238;2024-02-23T06:41:38;13.80;96.20
38788;DHT22;24536;45.488;12.238;2024-02-23T06:44:04;13.80;96.30
38788;DHT22;24536;45.488;12.238;2024-02-23T06:46:30;13.80;96.20
38788;DHT22;24536;45.488;12.238;2024-02-23T06:48:56;13.80;96.30
38788;DHT22;24536;45.488;12.238;2024-02-23T06:51:21;13.90;96.30
38788;DHT22;24536;45.488;12.238;2024-02-23T06:53:48;13.80;96.30
38788;DHT22;24536;45.488;12.238;2024-02-23T06:56:15;13.80;96.30
38788;DHT22;24536;45.488;12.238;2024-02-23T06:58:41;13.80;96.40
38788;DHT22;24536;45.488;12.238;2024-02-23T07:01:06;13.90;97.00
38788;DHT22;24536;45.488;12.238;2024-02-23T07:03:36;13.90;96.60
38788;DHT22;24536;45.488;12.238;2024-02-23T07:06:02;14.00;96.40
38788;DHT22;24536;45.488;12.238;2024-02-23T07:08:28;13.90;96.20
38788;DHT22;24536;45.488;12.238;2024-02-23T07:10:55;13.90;96.20
38788;DHT22;24536;45.488;12.238;2024-02-23T07:13:21;13.90;96.20
38788;DHT22;24536;45.488;12.238;2024-02-23T07:15:46;13.90;96.10
38788;DHT22;24536;45.488;12.238;2024-02-23T07:18:12;14.00;96.00
38788;DHT22;24536;45.488;12.238;2024-02-23T07:20:38;14.00;95.90
38788;DHT22;24536;45.488;12.238;2024-02-23T07:23:04;13.90;95.70
38788;DHT22;24536;45.488;12.238;2024-02-23T07:25:30;14.00;95.70
38788;DHT22;24536;45.488;12.238;2024-02-23T07:27:56;14.00;95.50
38788;DHT22;24536;45.488;12.238;2024-02-23T07:30:22;14.00;95.40
38788;DHT22;24536;45.488;12.238;2024-02-23T07:32:49;14.00;95.50
38788;DHT22;24536;45.488;12.238;2024-02-23T07:35:14;14.00;95.30
38788;DHT22;24536;45.488;12.238;2024-02-23T07:37:40;14.00;95.20
38788;DHT22;24536;45.488;12.238;2024-02-23T07:40:06;14.10;95.50
38788;DHT22;24536;45.488;12.238;2024-02-23T07:42:33;14.00;95.40
38788;DHT22;24536;45.488;12.238;2024-02-23T07:45:04;14.00;95.70
38788;DHT22;24536;45.488;12.238;2024-02-23T07:47:33;14.10;95.60
38788;DHT22;24536;45.488;12.238;2024-02-23T07:49:59;14.10;95.50
38788;DHT22;24536;45.488;12.238;2024-02-23T07:52:25;14.10;94.90
38788;DHT22;24536;45.488;12.238;2024-02-23T07:54:54;14.10;94.90
38788;DHT22;24536;45.488;12.238;2024-02-23T07:57:20;14.10;94.50
38788;DHT22;24536;45.488;12.238;2024-02-23T07:59:47;14.10;94.40
38788;DHT22;24536;45.488;12.238;2024-02-23T08:02:13;14.00;94.30
38788;DHT22;24536;45.488;12.238;2024-02-23T08:04:39;14.00;94.50
38788;DHT22;24536;45.488;12.238;2024-02-23T08:07:05;14.00;94.10
38788;DHT22;24536;45.488;12.238;2024-02-23T08:09:31;14.00;94.20
38788;DHT22;24536;45.488;12.238;2024-02-23T08:11:56;14.00;94.10
38788;DHT22;24536;45.488;12.238;2024-02-23T08:14:22;14.10;93.90
38788;DHT22;24536;45.488;12.238;2024-02-23T08:16:48;14.10;93.90
38788;DHT22;24536;45.488;12.238;2024-02-23T08:19:15;14.00;94.00
38788;DHT22;24536;45.488;12.238;2024-02-23T08:21:41;14.10;93.90
38788;DHT22;24536;45.488;12.238;2024-02-23T08:24:07;14.10;93.90
38788;DHT22;24536;45.488;12.238;2024-02-23T08:26:33;14.10;93.70
38788;DHT22;24536;45.488;12.238;2024-02-23T08:28:59;14.10;93.60
38788;DHT22;24536;45.488;12.238;2024-02-23T08:31:25;14.10;93.60
38788;DHT22;24536;45.488;12.238;2024-02-23T08:33:50;14.10;93.50
38788;DHT22;24536;45.488;12.238;2024-02-23T08:36:16;14.20;93.60
38788;DHT22;24536;45.488;12.238;2024-02-23T08:38:41;14.10;93.60
38788;DHT22;24536;45.488;12.238;2024-02-23T08:41:07;14.10;93.60
38788;DHT22;24536;45.488;12.238;2024-02-23T08:43:34;14.10;93.70
38788;DHT22;24536;45.488;12.238;2024-02-23T08:45:59;14.20;93.80
38788;DHT22;24536;45.488;12.238;2024-02-23T08:48:25;14.20;94.00
38788;DHT22;24536;45.488;12.238;2024-02-23T08:50:51;14.20;94.00
38788;DHT22;24536;45.488;12.238;2024-02-23T08:53:17;14.10;94.00
38788;DHT22;24536;45.488;12.238;2024-02-23T08:55:42;14.10;93.90
38788;DHT22;24536;45.488;12.238;2024-02-23T08:58:08;14.10;94.00
38788;DHT22;24536;45.488;12.238;2024-02-23T09:00:35;14.10;93.90
38788;DHT22;24536;45.488;12.238;2024-02-23T09:03:02;14.10;94.10
38788;DHT22;24536;45.488;12.238;2024-02-23T09:05:28;14.10;94.00
38788;DHT22;24536;45.488;12.238;2024-02-23T09:07:54;14.10;93.90
38788;DHT22;24536;45.488;12.238;2024-02-23T09:10:20;14.10;93.80
38788;DHT22;24536;45.488;12.238;2024-02-23T09:12:46;14.20;93.70
38788;DHT22;24536;45.488;12.238;2024-02-23T09:15:12;14.20;93.50
38788;DHT22;24536;45.488;12.238;2024-02-23T09:17:39;14.20;93.30
38788;DHT22;24536;45.488;12.238;2024-02-23T09:20:05;14.20;93.40
38788;DHT22;24536;45.488;12.238;2024-02-23T09:22:31;14.20;93.40
38788;DHT22;24536;45.488;12.238;2024-02-23T09:24:56;14.20;93.50
38788;DHT22;24536;45.488;12.238;2024-02-23T09:27:22;14.20;93.30
38788;DHT22;24536;45.488;12.238;2024-02-23T09:29:48;14.20;93.40
38788;DHT22;24536;45.488;12.238;2024-02-23T09:32:14;14.20;93.40
38788;DHT22;24536;45.488;12.238;2024-02-23T09:34:40;14.20;93.60
38788;DHT22;24536;45.488;12.238;2024-02-23T09:37:05;14.20;93.60
38788;DHT22;24536;45.488;12.238;2024-02-23T09:39:31;14.20;93.40
38788;DHT22;24536;45.488;12.238;2024-02-23T09:41:57;14.20;93.40
38788;DHT22;24536;45.488;12.238;2024-02-23T09:44:22;14.20;93.30
38788;DHT22;24536;45.488;12.238;2024-02-23T09:46:48;14.20;93.40
38788;DHT22;24536;45.488;12.238;2024-02-23T09:49:15;14.20;93.80
38788;DHT22;24536;45.488;12.238;2024-02-23T09:51:43;14.20;93.80
38788;DHT22;24536;45.488;12.238;2024-02-23T09:54:09;14.20;93.90
38788;DHT22;24536;45.488;12.238;2024-02-23T09:56:35;14.20;93.90
38788;DHT22;24536;45.488;12.238;2024-02-23T09:59:03;14.20;94.00
38788;DHT22;24536;45.488;12.238;2024-02-23T10:01:31;14.20;94.10
38788;DHT22;24536;45.488;12.238;2024-02-23T10:03:59;14.20;94.30
38788;DHT22;24536;45.488;12.238;2024-02-23T10:06:25;14.20;94.50
38788;DHT22;24536;45.488;12.238;2024-02-23T10:08:51;14.20;94.80
38788;DHT22;24536;45.488;12.238;2024-02-23T10:11:20;14.20;94.80
38788;DHT22;24536;45.488;12.238;2024-02-23T10:13:48;14.20;94.80
38788;DHT22;24536;45.488;12.238;2024-02-23T10:16:19;14.20;95.30
38788;DHT22;24536;45.488;12.238;2024-02-23T10:18:48;14.20;95.30
38788;DHT22;24536;45.488;12.238;2024-02-23T10:21:17;14.20;95.30
38788;DHT22;24536;45.488;12.238;2024-02-23T10:23:47;14.20;95.40
38788;DHT22;24536;45.488;12.238;2024-02-23T10:26:13;14.20;95.40
38788;DHT22;24536;45.488;12.238;2024-02-23T10:28:45;14.30;95.50
38788;DHT22;24536;45.488;12.238;2024-02-23T10:31:12;14.30;95.60
38788;DHT22;24536;45.488;12.238;2024-02-23T10:33:38;14.30;95.70
38788;DHT22;24536;45.488;12.238;2024-02-23T10:36:05;14.20;95.90
38788;DHT22;24536;45.488;12.238;2024-02-23T10:38:32;14.20;95.80
38788;DHT22;24536;45.488;12.238;2024-02-23T10:41:01;14.20;95.80
38788;DHT22;24536;45.488;12.238;2024-02-23T10:43:36;14.20;95.60
38788;DHT22;24536;45.488;12.238;2024-02-23T10:46:15;14.20;95.50
38788;DHT22;24536;45.488;12.238;2024-02-23T10:48:43;14.20;95.50
38788;DHT22;24536;45.488;12.238;2024-02-23T10:51:10;14.20;95.50
38788;DHT22;24536;45.488;12.238;2024-02-23T10:53:36;14.20;95.40
38788;DHT22;24536;45.488;12.238;2024-02-23T10:56:03;14.20;95.50
38788;DHT22;24536;45.488;12.238;2024-02-23T10:58:30;14.20;95.30
38788;DHT22;24536;45.488;12.238;2024-02-23T11:01:04;14.20;95.40
38788;DHT22;24536;45.488;12.238;2024-02-23T11:03:33;14.20;95.30
38788;DHT22;24536;45.488;12.238;2024-02-23T11:06:01;14.20;95.30
38788;DHT22;24536;45.488;12.238;2024-02-23T11:08:29;14.30;95.10
38788;DHT22;24536;45.488;12.238;2024-02-23T11:10:55;14.30;94.80
38788;DHT22;24536;45.488;12.238;2024-02-23T11:13:37;14.30;95.10
38788;DHT22;24536;45.488;12.238;2024-02-23T11:16:04;14.30;95.10
38788;DHT22;24536;45.488;12.238;2024-02-23T11:18:30;14.30;95.10
38788;DHT22;24536;45.488;12.238;2024-02-23T11:21:01;14.30;95.00
38788;DHT22;24536;45.488;12.238;2024-02-23T11:23:43;14.30;95.80
38788;DHT22;24536;45.488;12.238;2024-02-23T11:26:10;14.40;95.90
38788;DHT22;24536;45.488;12.238;2024-02-23T11:31:13;14.40;95.70
38788;DHT22;24536;45.488;12.238;2024-02-23T11:33:39;14.40;95.60
38788;DHT22;24536;45.488;12.238;2024-02-23T11:36:08;14.40;95.60
38788;DHT22;24536;45.488;12.238;2024-02-23T11:38:34;14.40;95.70
38788;DHT22;24536;45.488;12.238;2024-02-23T11:41:01;14.40;96.00
38788;DHT22;24536;45.488;12.238;2024-02-23T11:43:27;14.40;95.80
38788;DHT22;24536;45.488;12.238;2024-02-23T11:45:53;14.40;96.00
38788;DHT22;24536;45.488;12.238;2024-02-23T11:51:54;14.40;96.20
38788;DHT22;24536;45.488;12.238;2024-02-23T11:54:20;14.30;96.60
38788;DHT22;24536;45.488;12.238;2024-02-23T11:56:50;14.30;96.80
38788;DHT22;24536;45.488;12.238;2024-02-23T11:59:20;14.20;96.80
38788;DHT22;24536;45.488;12.238;2024-02-23T12:01:48;14.20;97.50
38788;DHT22;24536;45.488;12.238;2024-02-23T12:04:17;14.00;98.10
38788;DHT22;24536;45.488;12.238;2024-02-23T12:06:43;14.00;97.90
38788;DHT22;24536;45.488;12.238;2024-02-23T12:09:09;13.90;98.00
38788;DHT22;24536;45.488;12.238;2024-02-23T12:11:37;13.90;98.70
38788;DHT22;24536;45.488;12.238;2024-02-23T12:14:04;13.80;98.90
38788;DHT22;24536;45.488;12.238;2024-02-23T12:16:33;13.80;99.10
38788;DHT22;24536;45.488;12.238;2024-02-23T12:19:01;13.70;99.00
38788;DHT22;24536;45.488;12.238;2024-02-23T12:21:27;13.60;99.50
38788;DHT22;24536;45.488;12.238;2024-02-23T12:23:53;13.60;99.70
38788;DHT22;24536;45.488;12.238;2024-02-23T12:26:19;13.50;99.90
38788;DHT22;24536;45.488;12.238;2024-02-23T12:28:45;13.40;99.90
38788;DHT22;24536;45.488;12.238;2024-02-23T12:31:11;13.30;99.90
38788;DHT22;24536;45.488;12.238;2024-02-23T12:33:38;13.20;99.90
38788;DHT22;24536;45.488;12.238;2024-02-23T12:36:08;13.20;99.90
38788;DHT22;24536;45.488;12.238;2024-02-23T12:38:35;13.20;99.90
38788;DHT22;24536;45.488;12.238;2024-02-23T12:41:04;13.30;99.90
38788;DHT22;24536;45.488;12.238;2024-02-23T12:43:30;13.30;99.90
38788;DHT22;24536;45.488;12.238;2024-02-23T12:45:57;13.30;99.90
38788;DHT22;24536;45.488;12.238;2024-02-23T12:48:23;13.30;99.90
38788;DHT22;24536;45.488;12.238;2024-02-23T12:50:50;13.30;99.90
38788;DHT22;24536;45.488;12.238;2024-02-23T12:53:33;13.40;99.90
38788;DHT22;24536;45.488;12.238;2024-02-23T12:56:01;13.40;99.90
38788;DHT22;24536;45.488;12.238;2024-02-23T12:58:30;13.50;99.90
38788;DHT22;24536;45.488;12.238;2024-02-23T13:00:59;13.50;99.90
38788;DHT22;24536;45.488;12.238;2024-02-23T13:03:28;13.50;99.90
38788;DHT22;24536;45.488;12.238;2024-02-23T13:05:57;13.50;99.90
38788;DHT22;24536;45.488;12.238;2024-02-23T13:08:23;13.50;99.90
38788;DHT22;24536;45.488;12.238;2024-02-23T13:10:50;13.50;99.90
38788;DHT22;24536;45.488;12.238;2024-02-23T13:13:16;13.50;99.90
38788;DHT22;24536;45.488;12.238;2024-02-23T13:15:45;13.40;99.90
38788;DHT22;24536;45.488;12.238;2024-02-23T13:18:11;13.50;99.90
38788;DHT22;24536;45.488;12.238;2024-02-23T13:20:37;13.40;99.90
38788;DHT22;24536;45.488;12.238;2024-02-23T13:23:04;13.40;99.90
38788;DHT22;24536;45.488;12.238;2024-02-23T13:25:30;13.40;99.90
38788;DHT22;24536;45.488;12.238;2024-02-23T13:27:56;13.40;99.90
38788;DHT22;24536;45.488;12.238;2024-02-23T13:30:23;13.40;99.90
38788;DHT22;24536;45.488;12.238;2024-02-23T13:32:48;13.40;99.90
38788;DHT22;24536;45.488;12.238;2024-02-23T13:35:14;13.40;99.90
38788;DHT22;24536;45.488;12.238;2024-02-23T13:37:41;13.40;99.90
38788;DHT22;24536;45.488;12.238;2024-02-23T13:40:08;13.40;99.90
38788;DHT22;24536;45.488;12.238;2024-02-23T13:42:35;13.40;99.90
38788;DHT22;24536;45.488;12.238;2024-02-23T13:45:01;13.30;99.90
38788;DHT22;24536;45.488;12.238;2024-02-23T13:47:27;13.30;99.90
38788;DHT22;24536;45.488;12.238;2024-02-23T13:49:52;13.30;99.90
38788;DHT22;24536;45.488;12.238;2024-02-23T13:52:22;13.30;99.90
38788;DHT22;24536;45.488;12.238;2024-02-23T13:54:49;13.40;99.90
38788;DHT22;24536;45.488;12.238;2024-02-23T13:57:16;13.40;99.90
38788;DHT22;24536;45.488;12.238;2024-02-23T13:59:44;13.40;99.90
38788;DHT22;24536;45.488;12.238;2024-02-23T14:02:23;13.50;99.90
38788;DHT22;24536;45.488;12.238;2024-02-23T14:04:51;13.50;99.90
38788;DHT22;24536;45.488;12.238;2024-02-23T14:07:16;13.50;99.90
38788;DHT22;24536;45.488;12.238;2024-02-23T14:09:49;13.50;99.90
38788;DHT22;24536;45.488;12.238;2024-02-23T14:12:16;13.60;99.90
38788;DHT22;24536;45.488;12.238;2024-02-23T14:14:45;13.60;99.90
38788;DHT22;24536;45.488;12.238;2024-02-23T14:17:12;13.60;99.90
38788;DHT22;24536;45.488;12.238;2024-02-23T14:19:39;13.60;99.90
38788;DHT22;24536;45.488;12.238;2024-02-23T14:22:08;13.60;99.90
38788;DHT22;24536;45.488;12.238;2024-02-23T14:24:35;13.60;99.90
38788;DHT22;24536;45.488;12.238;2024-02-23T14:27:02;13.60;99.90
38788;DHT22;24536;45.488;12.238;2024-02-23T14:29:29;13.60;99.90
38788;DHT22;24536;45.488;12.238;2024-02-23T14:31:58;13.60;99.90
38788;DHT22;24536;45.488;12.238;2024-02-23T14:34:25;13.70;99.90
38788;DHT22;24536;45.488;12.238;2024-02-23T14:36:52;13.60;99.90
38788;DHT22;24536;45.488;12.238;2024-02-23T14:39:18;13.60;99.90
38788;DHT22;24536;45.488;12.238;2024-02-23T14:41:56;13.60;99.90
38788;DHT22;24536;45.488;12.238;2024-02-23T14:44:23;13.60;99.90
38788;DHT22;24536;45.488;12.238;2024-02-23T14:46:48;13.60;99.90
38788;DHT22;24536;45.488;12.238;2024-02-23T14:49:17;13.60;99.90
38788;DHT22;24536;45.488;12.238;2024-02-23T14:51:43;13.60;99.90
38788;DHT22;24536;45.488;12.238;2024-02-23T14:54:14;13.60;99.90
38788;DHT22;24536;45.488;12.238;2024-02-23T14:56:39;13.60;99.90
38788;DHT22;24536;45.488;12.238;2024-02-23T14:59:07;13.60;99.90
38788;DHT22;24536;45.488;12.238;2024-02-23T15:01:37;13.50;99.90
38788;DHT22;24536;45.488;12.238;2024-02-23T15:04:04;13.50;99.90
38788;DHT22;24536;45.488;12.238;2024-02-23T15:06:30;13.60;99.90
38788;DHT22;24536;45.488;12.238;2024-02-23T15:08:56;13.60;99.90
38788;DHT22;24536;45.488;12.238;2024-02-23T15:11:21;13.60;99.90
38788;DHT22;24536;45.488;12.238;2024-02-23T15:13:48;13.50;99.90
38788;DHT22;24536;45.488;12.238;2024-02-23T15:16:13;13.60;99.90
38788;DHT22;24536;45.488;12.238;2024-02-23T15:18:39;13.50;99.90